Time;durP1;ratioP1;P1;durP2;ratioP2;P2;SDS_P1;SDS_P2;PMS_P1;PMS_P2;Temp;Humidity;BMP_temperature;BMP_pressure;BME280_temperature;BME280_humidity;BME280_pressure;Samples;Min_cycle;Max_cycle;Signal;HPM_P1;HPM_P2
2023/07/22 07:01:22;;;;;;;1.43;1.13;;;17.10;99.90;18.90;101122.00;;;;6255370;22;1362098;-63
2023/07/22 07:03:47;;;;;;;0.27;0.27;;;17.20;99.90;20.00;101146.00;;;;6308664;22;20179;-63
2023/07/22 07:06:16;;;;;;;0.40;0.40;;;17.70;99.90;20.10;101148.00;;;;6308477;22;20189;-63
2023/07/22 07:08:42;;;;;;;0.75;0.75;;;18.10;99.90;22.70;101175.00;;;;6309203;22;20141;-64
2023/07/22 07:11:11;;;;;;;0.63;0.63;;;19.40;99.90;23.50;101192.00;;;;6309414;22;20263;-64
2023/07/22 07:13:40;;;;;;;1.45;0.55;;;20.30;99.90;22.50;101181.00;;;;6309141;22;20151;-64
2023/07/22 07:16:31;;;;;;;0.20;0.20;;;20.30;99.90;23.00;101152.00;;;;6309349;22;20478;-64
2023/07/22 07:19:03;;;;;;;0.95;0.95;;;20.50;99.90;21.10;101168.00;;;;6308642;22;20225;-64
2023/07/22 07:21:34;;;;;;;0.10;0.10;;;19.80;99.90;22.20;101174.00;;;;6282126;22;20180;-64
2023/07/22 07:24:00;;;;;;;0.40;0.40;;;19.60;99.90;22.70;101183.00;;;;6308475;22;20140;-63
2023/07/22 07:26:30;;;;;;;0.10;0.10;;;20.10;99.90;22.90;101184.00;;;;6309583;22;20221;-64
2023/07/22 07:28:59;;;;;;;0.25;0.25;;;20.40;99.90;21.90;101156.00;;;;6308821;22;20136;-64
2023/07/22 07:31:27;;;;;;;0.50;0.50;;;20.00;99.90;21.60;101175.00;;;;6309715;22;20168;-64
2023/07/22 07:33:56;;;;;;;0.10;0.10;;;19.90;99.90;23.00;101173.00;;;;6282035;22;20145;-64
2023/07/22 07:36:26;;;;;;;1.30;1.20;;;20.20;99.90;23.20;101187.00;;;;6308353;22;20215;-64
2023/07/22 07:38:54;;;;;;;0.20;0.20;;;21.00;99.90;21.30;101160.00;;;;6309378;22;20141;-64
2023/07/22 07:41:21;;;;;;;0.40;0.40;;;20.40;99.90;21.80;101172.00;;;;6308267;22;20140;-64
2023/07/22 07:43:55;;;;;;;0.73;0.40;;;20.10;99.90;22.60;101172.00;;;;6281802;22;20264;-64
2023/07/22 07:46:35;;;;;;;0.22;0.22;;;20.10;99.90;21.10;101156.00;;;;6309372;22;20144;-64
2023/07/22 07:49:11;;;;;;;0.30;0.30;;;20.10;99.90;21.40;101166.00;;;;6307568;22;20484;-64
2023/07/22 07:51:42;;;;;;;1.88;0.98;;;19.70;99.90;23.00;101191.00;;;;6307969;22;20152;-64
2023/07/22 07:54:16;;;;;;;0.40;0.40;;;20.50;99.90;23.00;101168.00;;;;6309121;22;20600;-64
2023/07/22 07:56:44;;;;;;;2.58;1.58;;;20.30;99.90;20.50;101158.00;;;;6308815;22;20162;-64
2023/07/22 07:59:13;;;;;;;0.20;0.20;;;20.00;99.90;20.00;101156.00;;;;6281551;22;20144;-64
2023/07/22 08:01:41;;;;;;;0.10;0.10;;;19.00;99.90;21.20;101164.00;;;;6308727;22;20137;-63
2023/07/22 08:04:12;;;;;;;0.10;0.10;;;19.10;99.90;22.90;101191.00;;;;6308262;22;20595;-63
2023/07/22 08:06:54;;;;;;;0.22;0.22;;;19.80;99.90;23.20;101202.00;;;;6308852;22;20132;-66
2023/07/22 08:09:26;;;;;;;0.10;0.10;;;20.50;99.90;22.90;101190.00;;;;6281735;22;20148;-67
2023/07/22 08:11:57;;;;;;;0.63;0.63;;;20.80;99.90;22.90;101181.00;;;;6281274;22;20595;-68
2023/07/22 08:14:23;;;;;;;1.13;0.90;;;20.60;99.90;23.40;101183.00;;;;6248983;22;20696;-65
2023/07/22 08:16:49;;;;;;;0.35;0.20;;;20.90;99.90;23.60;101187.00;;;;6305871;22;20223;-64
2023/07/22 08:19:15;;;;;;;0.20;0.20;;;21.00;99.90;24.80;101201.00;;;;6278692;22;20160;-65
2023/07/22 08:21:40;;;;;;;1.17;1.08;;;21.60;99.90;25.40;101217.00;;;;6305619;22;20147;-65
2023/07/22 08:24:30;;;;;;;0.57;0.57;;;22.40;99.90;26.10;101217.00;;;;6306623;22;20137;-65
2023/07/22 08:27:04;;;;;;;0.10;0.10;;;22.80;99.90;25.90;101228.00;;;;6308064;22;20708;-65
2023/07/22 08:29:39;;;;;;;1.70;1.58;;;23.20;99.90;22.40;101217.00;;;;6307571;22;20163;-65
2023/07/22 08:32:06;;;;;;;0.10;0.10;;;21.90;99.90;22.30;101178.00;;;;6281319;22;20143;-65
2023/07/22 08:34:34;;;;;;;4.03;0.30;;;20.90;99.90;24.80;101215.00;;;;6280964;22;20152;-66
2023/07/22 08:37:11;;;;;;;0.98;0.98;;;22.00;99.90;24.90;101217.00;;;;6305978;22;20193;-65
2023/07/22 08:39:51;;;;;;;0.10;0.10;;;22.50;99.90;24.90;101216.00;;;;6306531;22;20174;-68
2023/07/22 08:42:21;;;;;;;3.10;1.00;;;22.70;99.90;23.50;101217.00;;;;6282138;22;20651;-64
2023/07/22 08:45:10;;;;;;;0.20;0.20;;;22.30;99.90;25.20;101207.00;;;;6255835;22;20152;-64
2023/07/22 08:47:51;;;;;;;0.10;0.10;;;22.40;99.90;25.40;101210.00;;;;6308383;22;20159;-65
2023/07/22 08:50:29;;;;;;;0.10;0.10;;;22.70;99.90;27.00;101234.00;;;;6282821;22;20145;-68
2023/07/22 08:53:05;;;;;;;0.57;0.57;;;23.80;99.90;24.90;101278.00;;;;6255639;22;20179;-65
2023/07/22 08:56:17;;;;;;;0.88;0.85;;;23.60;99.90;25.40;101235.00;;;;6251483;22;20167;-65
2023/07/22 08:59:06;;;;;;;0.10;0.10;;;22.90;99.90;26.90;101247.00;;;;6303542;22;20595;-65
2023/07/22 09:01:40;;;;;;;1.65;1.50;;;23.70;99.90;27.10;101246.00;;;;6280169;22;20168;-65
2023/07/22 09:04:10;;;;;;;1.30;1.20;;;24.40;99.90;24.80;101263.00;;;;6305141;22;20144;-65
2023/07/22 09:06:41;;;;;;;0.10;0.10;;;23.00;99.90;23.50;101195.00;;;;6277749;22;20160;-65
2023/07/22 09:09:13;;;;;;;0.30;0.30;;;22.00;99.90;24.50;101248.00;;;;6305213;22;20140;-65
2023/07/22 09:11:41;;;;;;;0.10;0.10;;;22.50;99.90;24.30;101178.00;;;;6277552;22;20160;-65
2023/07/22 09:14:19;;;;;;;0.65;0.65;;;21.80;99.90;23.50;101195.00;;;;6304689;22;20593;-65
2023/07/22 09:16:51;;;;;;;0.30;0.30;;;21.80;99.90;24.00;101235.00;;;;6277460;22;20167;-65
2023/07/22 09:19:22;;;;;;;0.10;0.10;;;22.00;99.90;26.20;101229.00;;;;6304951;22;20144;-65
2023/07/22 09:21:59;;;;;;;1.17;1.00;;;22.90;99.90;24.70;101279.00;;;;6304582;22;20168;-65
2023/07/22 09:24:34;;;;;;;0.10;0.10;;;23.10;99.90;26.50;101243.00;;;;6304849;22;20638;-66
2023/07/22 09:27:05;;;;;;;0.75;0.15;;;23.20;99.90;26.40;101276.00;;;;6304343;22;20226;-65
2023/07/22 09:29:44;;;;;;;0.20;0.20;;;23.90;99.90;28.40;101268.00;;;;6277057;22;20171;-65
2023/07/22 09:32:36;;;;;;;0.20;0.20;;;24.90;99.90;27.80;101286.00;;;;6304834;22;20483;-65
2023/07/22 09:35:07;;;;;;;0.25;0.25;;;25.10;99.90;26.20;101302.00;;;;6277234;22;20596;-65
2023/07/22 09:37:44;;;;;;;0.13;0.13;;;24.20;99.90;26.60;101297.00;;;;6304290;22;20475;-65
2023/07/22 09:40:27;;;;;;;7.68;1.65;;;24.60;99.90;23.80;101319.00;;;;6304431;22;20144;-66
2023/07/22 09:42:57;;;;;;;1.27;0.88;;;22.90;99.90;22.90;101255.00;;;;6304457;22;20175;-65
2023/07/22 09:45:27;;;;;;;0.10;0.10;;;21.60;99.90;24.90;101265.00;;;;6277296;22;20164;-65
2023/07/22 09:47:55;;;;;;;0.10;0.10;;;22.10;99.90;27.10;101263.00;;;;6304169;22;20148;-66
2023/07/22 09:50:41;;;;;;;1.45;1.13;;;23.40;99.90;25.30;101272.00;;;;6277765;22;20137;-66
2023/07/22 09:53:15;;;;;;;0.15;0.15;;;23.40;99.90;25.70;101282.00;;;;6303993;22;20167;-65
2023/07/22 09:55:46;;;;;;;1.17;0.30;;;23.60;99.90;24.80;101277.00;;;;6277019;22;20448;-66
2023/07/22 09:58:22;;;;;;;0.88;0.80;;;23.10;99.90;25.40;101278.00;;;;6304604;22;20144;-66
2023/07/22 10:00:50;;;;;;;0.45;0.45;;;23.30;99.90;24.00;101297.00;;;;6277587;22;20167;-66
2023/07/22 10:03:19;;;;;;;0.32;0.32;;;22.90;99.90;26.00;101253.00;;;;6276757;22;20175;-66
2023/07/22 10:05:50;;;;;;;0.45;0.45;;;23.40;99.90;26.40;101266.00;;;;6277107;22;20164;-66
2023/07/22 10:08:19;;;;;;;0.43;0.43;;;23.50;99.90;27.20;101250.00;;;;6276539;22;20165;-66
2023/07/22 10:10:45;;;;;;;0.63;0.43;;;24.00;99.90;23.40;101306.00;;;;6303158;22;20485;-65
2023/07/22 10:13:14;;;;;;;0.10;0.10;;;22.90;99.90;26.60;101269.00;;;;6277062;22;20144;-65
2023/07/22 10:15:40;;;;;;;0.10;0.10;;;23.30;99.90;27.50;101242.00;;;;6304220;22;20140;-66
2023/07/22 10:18:10;;;;;;;0.30;0.30;;;24.50;99.90;27.70;101208.00;;;;6276669;22;20240;-65
2023/07/22 10:20:41;;;;;;;0.10;0.10;;;24.70;99.90;27.70;101231.00;;;;6251478;22;20164;-65
2023/07/22 10:33:29;;;;;;;0.10;0.10;;;24.20;99.90;27.00;101248.00;;;;5120954;27;20526;-65
2023/07/22 10:36:18;;;;;;;0.30;0.30;;;24.40;99.90;27.60;101231.00;;;;5098812;28;20241;-65
2023/07/22 10:38:59;;;;;;;0.20;0.20;;;25.30;99.90;27.00;101217.00;;;;5099858;28;20183;-65
2023/07/22 10:41:38;;;;;;;0.45;0.30;;;25.10;99.90;25.00;101249.00;;;;5098079;28;20199;-64
2023/07/22 10:44:10;;;;;;;0.77;0.57;;;24.30;99.90;27.40;101233.00;;;;5098015;28;20192;-68
2023/07/22 10:46:43;;;;;;;0.28;0.28;;;24.60;99.90;28.00;101230.00;;;;5097804;28;20176;-65
2023/07/22 10:49:15;;;;;;;0.20;0.20;;;24.80;99.90;27.30;101233.00;;;;5099255;28;20191;-65
2023/07/22 10:51:48;;;;;;;0.10;0.10;;;24.60;99.90;27.00;101233.00;;;;5098178;28;20192;-65
2023/07/22 10:54:33;;;;;;;0.25;0.25;;;24.60;99.90;25.70;101259.00;;;;5080925;28;20669;-65
2023/07/22 10:57:24;;;;;;;0.52;0.50;;;23.40;99.90;27.00;101226.00;;;;5098319;28;20192;-66
2023/07/22 11:00:07;;;;;;;0.60;0.60;;;24.00;99.90;26.80;101235.00;;;;5081548;28;20629;-65
2023/07/22 11:03:10;;;;;;;0.10;0.10;;;24.20;99.90;27.40;101206.00;;;;5099086;28;20200;-65
2023/07/22 11:05:56;;;;;;;0.30;0.30;;;24.40;99.90;27.80;101176.00;;;;5098571;28;20196;-67
2023/07/22 11:08:43;;;;;;;0.30;0.30;;;24.60;99.90;28.40;101166.00;;;;5100027;28;20180;-66
2023/07/22 11:11:38;;;;;;;0.88;0.40;;;25.50;99.90;24.70;101224.00;;;;5099522;28;20180;-65
2023/07/22 11:14:22;;;;;;;0.77;0.40;;;24.20;99.90;24.50;101257.00;;;;5098778;28;20179;-67
2023/07/22 11:17:29;;;;;;;0.47;0.40;;;22.80;99.90;26.40;101215.00;;;;5096408;28;20188;-67
2023/07/22 11:20:01;;;;;;;1.90;1.85;;;23.70;99.90;26.20;101211.00;;;;5080247;28;20322;-65
2023/07/22 11:22:41;;;;;;;0.28;0.28;;;24.00;99.90;26.10;101216.00;;;;5090138;28;20193;-65
2023/07/22 11:25:36;;;;;;;0.40;0.40;;;23.80;99.90;26.60;101211.00;;;;5105280;28;20193;-65
2023/07/22 11:28:08;;;;;;;0.40;0.40;;;24.40;99.90;27.70;101191.00;;;;5084087;28;20288;-65
2023/07/22 11:30:46;;;;;;;0.63;0.30;;;25.20;99.90;25.90;101211.00;;;;5088575;28;20181;-65
2023/07/22 11:33:44;;;;;;;0.10;0.10;;;24.70;99.90;29.30;101173.00;;;;5089203;28;20228;-65
2023/07/22 11:36:42;;;;;;;0.65;0.40;;;25.50;99.90;26.60;101211.00;;;;5080026;28;20177;-66
2023/07/22 11:39:51;;;;;;;0.10;0.10;;;25.00;99.90;26.80;101214.00;;;;5086296;28;20283;-66
2023/07/22 11:42:24;;;;;;;0.10;0.10;;;24.80;99.90;26.40;101224.00;;;;5085723;28;20212;-65
2023/07/22 11:44:50;;;;;;;0.35;0.35;;;24.30;99.90;26.70;101209.00;;;;5075063;28;20212;-65
2023/07/22 11:47:15;;;;;;;0.32;0.32;;;24.30;99.90;26.40;101218.00;;;;5075758;28;20707;-65
2023/07/22 11:49:47;;;;;;;0.10;0.10;;;24.40;99.90;26.50;101218.00;;;;5074611;28;20185;-65
2023/07/22 11:52:17;;;;;;;0.10;0.10;;;24.20;99.90;29.50;101171.00;;;;5067634;28;20215;-66
2023/07/22 11:55:27;;;;;;;0.30;0.30;;;25.90;99.90;28.80;101171.00;;;;5074190;28;20185;-66
2023/07/22 11:58:45;;;;;;;0.52;0.52;;;25.80;99.90;29.30;101137.00;;;;5074980;28;20195;-66
2023/07/22 12:01:56;;;;;;;0.15;0.15;;;26.50;99.90;28.40;101205.00;;;;5050568;28;20174;-66
2023/07/22 12:05:05;;;;;;;0.73;0.73;;;27.40;99.90;27.30;101218.00;;;;5062598;28;20511;-65
2023/07/22 12:11:32;;;;;;;0.10;0.10;;;24.70;99.90;26.60;101202.00;;;;5074791;28;20197;-66
2023/07/22 12:15:08;;;;;;;0.10;0.10;;;24.20;99.90;27.60;101209.00;;;;5074962;28;20739;-65
2023/07/22 12:17:59;;;;;;;0.10;0.10;;;24.70;99.90;27.50;101206.00;;;;5071492;28;20213;-65
2023/07/22 12:20:52;;;;;;;5.28;0.43;;;24.70;99.90;26.30;101225.00;;;;5070263;28;20182;-66
2023/07/22 12:23:57;;;;;;;0.13;0.13;;;24.00;99.90;26.00;101230.00;;;;5073028;28;20224;-66
2023/07/22 12:27:06;;;;;;;0.38;0.30;;;24.00;99.90;26.50;101239.00;;;;5071155;28;20206;-66
2023/07/22 12:29:35;;;;;;;0.52;0.50;;;23.80;99.90;27.60;101223.00;;;;5070094;28;20204;-66
2023/07/22 12:32:00;;;;;;;1.13;0.60;;;24.10;99.90;24.60;101224.00;;;;5074437;28;20213;-66
2023/07/22 12:34:31;;;;;;;0.68;0.68;;;23.10;99.90;24.80;101263.00;;;;5074811;28;20185;-66
2023/07/22 12:37:02;;;;;;;1.30;0.80;;;22.40;99.90;24.70;101265.00;;;;5074730;28;20220;-66
2023/07/22 12:39:36;;;;;;;0.52;0.52;;;22.40;99.90;24.10;101283.00;;;;5074358;28;20234;-66
2023/07/22 12:42:05;;;;;;;0.77;0.52;;;22.10;99.90;23.10;101304.00;;;;5074601;28;20205;-66
2023/07/22 12:44:36;;;;;;;1.75;1.05;;;21.50;99.90;23.60;101286.00;;;;5075093;28;20215;-65
2023/07/22 12:47:05;;;;;;;1.10;0.75;;;21.40;99.90;23.20;101299.00;;;;5085014;28;20197;-67
2023/07/22 12:49:36;;;;;;;0.55;0.52;;;21.40;99.90;23.10;101309.00;;;;5074888;28;20216;-65
2023/07/22 12:52:09;;;;;;;2.60;1.02;;;21.10;99.90;23.20;101309.00;;;;5072997;28;20220;-65
2023/07/22 12:54:35;;;;;;;1.02;1.02;;;21.10;99.90;23.40;101302.00;;;;5073103;28;20189;-65
2023/07/22 12:57:05;;;;;;;1.10;0.95;;;21.20;99.90;24.20;101288.00;;;;5073269;28;20181;-65
2023/07/22 12:59:33;;;;;;;1.13;0.88;;;21.50;99.90;23.10;101306.00;;;;5074180;28;20260;-65
2023/07/22 13:02:05;;;;;;;1.33;1.02;;;21.40;99.90;23.00;101298.00;;;;5074236;28;20189;-65
2023/07/22 13:04:37;;;;;;;7.03;1.23;;;21.10;99.90;23.80;101294.00;;;;5073749;28;20691;-65
2023/07/22 13:07:08;;;;;;;0.15;0.15;;;21.30;99.90;23.40;101291.00;;;;5080013;28;20181;-65
2023/07/22 13:09:42;;;;;;;0.25;0.20;;;21.20;99.90;23.60;101268.00;;;;5074120;28;20185;-65
2023/07/22 13:12:13;;;;;;;0.63;0.63;;;21.20;99.90;23.20;101273.00;;;;5072725;28;20292;-65
2023/07/22 13:14:46;;;;;;;1.10;0.60;;;21.30;99.90;23.70;101276.00;;;;5073120;28;20272;-65
2023/07/22 13:17:18;;;;;;;1.38;1.10;;;21.40;99.90;23.10;101267.00;;;;5074083;28;20176;-65
2023/07/22 13:19:44;;;;;;;1.30;0.80;;;21.20;99.90;22.90;101250.00;;;;5072563;28;20698;-65
2023/07/22 13:22:10;;;;;;;2.85;0.73;;;21.00;99.90;22.80;101256.00;;;;5071272;28;20648;-65
2023/07/22 13:24:35;;;;;;;0.75;0.30;;;21.10;99.90;22.80;101240.00;;;;5071894;28;20177;-65
2023/07/22 13:27:01;;;;;;;0.77;0.68;;;21.00;99.90;23.10;101236.00;;;;5072386;28;20177;-65
2023/07/22 13:29:30;;;;;;;3.90;0.30;;;21.40;99.90;24.70;101222.00;;;;5073276;28;20197;-66
2023/07/22 13:32:04;;;;;;;0.22;0.22;;;21.90;99.90;23.70;101228.00;;;;5073459;28;20304;-64
2023/07/22 13:34:33;;;;;;;0.85;0.77;;;22.00;99.90;23.00;101233.00;;;;5072422;28;20541;-65
2023/07/22 13:36:59;;;;;;;0.55;0.55;;;21.60;99.90;23.40;101199.00;;;;5072444;28;20722;-65
2023/07/22 13:39:28;;;;;;;0.40;0.40;;;21.50;99.90;23.60;101220.00;;;;5072603;28;20269;-65
2023/07/22 13:42:21;;;;;;;0.32;0.32;;;21.60;99.90;24.70;101213.00;;;;5072905;28;20199;-65
2023/07/22 13:44:56;;;;;;;4.15;0.90;;;22.10;99.90;26.40;101198.00;;;;5072112;28;20562;-66
2023/07/22 13:47:42;;;;;;;0.30;0.30;;;23.20;99.90;25.00;101212.00;;;;5072780;28;20187;-66
2023/07/22 13:51:00;;;;;;;1.65;0.47;;;23.00;99.90;24.80;101214.00;;;;5088915;28;20182;-65
2023/07/22 13:53:59;;;;;;;0.20;0.20;;;22.70;99.90;25.20;101201.00;;;;5067538;28;20201;-65
2023/07/22 13:57:06;;;;;;;0.10;0.10;;;22.60;99.90;24.70;101188.00;;;;5073480;28;20213;-65
2023/07/22 14:00:30;;;;;;;2.72;1.52;;;22.70;99.90;23.00;101231.00;;;;5072541;28;20246;-65
2023/07/22 14:03:52;;;;;;;0.82;0.82;;;21.70;99.90;23.50;101233.00;;;;5072853;28;20225;-65
2023/07/22 14:07:03;;;;;;;1.27;1.27;;;21.30;99.90;23.40;101243.00;;;;5062664;28;20272;-66
2023/07/22 14:10:17;;;;;;;2.08;1.15;;;21.20;99.90;22.60;101245.00;;;;5046448;28;20189;-65
2023/07/22 14:13:22;;;;;;;0.85;0.85;;;20.90;99.90;23.10;101237.00;;;;5064176;28;20212;-66
2023/07/22 14:16:28;;;;;;;0.85;0.85;;;21.00;99.90;23.60;101226.00;;;;5081074;28;20514;-65
2023/07/22 14:19:49;;;;;;;0.30;0.30;;;21.10;99.90;23.00;101239.00;;;;5065012;28;20644;-66
2023/07/22 14:22:53;;;;;;;0.57;0.57;;;21.10;99.90;22.80;101222.00;;;;5060236;28;20217;-65
2023/07/22 14:26:21;;;;;;;0.10;0.10;;;20.80;99.90;24.30;101203.00;;;;5071631;28;20182;-65
2023/07/22 14:29:32;;;;;;;0.88;0.57;;;21.10;99.90;24.20;101205.00;;;;5061659;28;20181;-65
2023/07/22 14:32:30;;;;;;;0.28;0.28;;;21.80;99.90;24.10;101209.00;;;;5059911;28;20213;-65
2023/07/22 14:35:40;;;;;;;0.10;0.10;;;21.80;99.90;25.00;101190.00;;;;5070269;28;20231;-65
2023/07/22 14:38:46;;;;;;;0.20;0.20;;;22.00;99.90;25.00;101178.00;;;;5071730;28;20240;-66
2023/07/22 14:41:55;;;;;;;0.10;0.10;;;22.20;99.90;25.00;101179.00;;;;5070732;28;20201;-65
2023/07/22 14:44:58;;;;;;;0.50;0.50;;;22.80;99.90;24.70;101184.00;;;;5059504;28;20193;-65
2023/07/22 14:47:53;;;;;;;0.28;0.28;;;22.50;99.90;23.60;101200.00;;;;5064559;28;20200;-65
2023/07/22 14:51:03;;;;;;;0.20;0.20;;;21.80;99.90;23.60;101197.00;;;;5064451;28;20200;-65
2023/07/22 14:53:55;;;;;;;0.10;0.10;;;21.50;99.90;24.20;101187.00;;;;5020114;28;20301;-65
2023/07/22 14:57:09;;;;;;;0.77;0.57;;;21.80;99.90;22.60;101210.00;;;;5004326;28;20190;-67
2023/07/22 15:00:23;;;;;;;0.73;0.73;;;21.40;99.90;22.40;101205.00;;;;5027357;28;20189;-66
2023/07/22 15:03:29;;;;;;;0.32;0.32;;;21.10;99.90;23.60;101187.00;;;;5007963;28;20198;-66
2023/07/22 15:06:20;;;;;;;0.10;0.10;;;21.40;99.90;24.10;101179.00;;;;5063492;28;20230;-66
2023/07/22 15:09:10;;;;;;;3.30;1.30;;;21.50;99.90;22.90;101196.00;;;;5056388;28;20612;-66
2023/07/22 15:12:21;;;;;;;0.10;0.10;;;21.50;99.90;24.50;101179.00;;;;5068809;28;20292;-66
2023/07/22 15:15:11;;;;;;;0.88;0.75;;;21.50;99.90;24.70;101170.00;;;;5064181;28;20280;-66
2023/07/22 15:17:55;;;;;;;6.28;2.22;;;22.20;99.90;23.70;101188.00;;;;5066634;28;20177;-66
2023/07/22 15:20:34;;;;;;;0.90;0.68;;;22.00;99.90;22.60;101201.00;;;;5083720;28;20185;-66
2023/07/22 15:23:06;;;;;;;2.83;1.20;;;21.30;99.90;22.40;101202.00;;;;5075857;28;20193;-66
2023/07/22 15:25:39;;;;;;;1.35;0.45;;;21.00;99.90;24.00;101182.00;;;;5084527;28;20650;-66
2023/07/22 15:28:11;;;;;;;5.03;0.77;;;21.10;99.90;23.10;101194.00;;;;5068301;28;20189;-66
2023/07/22 15:30:42;;;;;;;0.10;0.10;;;21.20;99.90;23.70;101185.00;;;;5086390;28;20209;-66
2023/07/22 15:33:11;;;;;;;0.50;0.50;;;21.30;99.90;24.60;101175.00;;;;5086076;28;20220;-66
2023/07/22 15:35:41;;;;;;;0.85;0.60;;;21.80;99.90;23.10;101167.00;;;;5085681;28;20196;-66
2023/07/22 15:38:14;;;;;;;0.30;0.30;;;21.40;99.90;22.80;101202.00;;;;5086303;28;20643;-66
2023/07/22 15:40:44;;;;;;;0.15;0.15;;;21.20;99.90;23.70;101198.00;;;;5085961;28;20277;-66
2023/07/22 15:43:10;;;;;;;0.35;0.32;;;21.20;99.90;24.20;101192.00;;;;5086647;28;20185;-66
2023/07/22 15:45:38;;;;;;;0.28;0.28;;;21.50;99.90;23.60;101192.00;;;;5083426;28;20188;-66
2023/07/22 15:48:07;;;;;;;3.53;1.23;;;21.30;99.90;22.60;101204.00;;;;5085358;28;20777;-66
2023/07/22 15:50:33;;;;;;;0.13;0.13;;;21.00;99.90;23.50;101200.00;;;;5086950;28;20182;-66
2023/07/22 15:53:12;;;;;;;0.65;0.32;;;21.00;99.90;23.40;101196.00;;;;5086100;28;20255;-66
2023/07/22 15:55:47;;;;;;;1.73;0.93;;;20.90;99.90;22.80;101200.00;;;;5086497;28;20185;-66
2023/07/22 15:58:21;;;;;;;1.90;0.95;;;20.70;99.90;22.40;101172.00;;;;5086335;28;20172;-66
2023/07/22 16:00:59;;;;;;;0.95;0.90;;;20.30;99.90;21.70;101151.00;;;;5084275;28;20184;-66
2023/07/22 16:03:37;;;;;;;0.85;0.60;;;20.10;99.90;22.30;101125.00;;;;5084301;28;20659;-66
2023/07/22 16:06:11;;;;;;;0.70;0.70;;;20.10;99.90;22.10;101112.00;;;;5084703;28;20196;-66
2023/07/22 16:08:48;;;;;;;0.85;0.75;;;20.20;99.90;21.50;101095.00;;;;5084435;28;20210;-66
2023/07/22 16:11:25;;;;;;;0.93;0.93;;;20.00;99.90;22.00;101091.00;;;;5083699;28;20249;-66
2023/07/22 16:14:09;;;;;;;0.13;0.13;;;20.10;99.90;22.00;101080.00;;;;5085315;28;20716;-66
2023/07/22 16:16:43;;;;;;;0.65;0.65;;;20.10;99.90;21.90;101074.00;;;;5083916;28;20204;-66
2023/07/22 16:19:20;;;;;;;0.63;0.63;;;20.10;99.90;21.40;101065.00;;;;5083569;28;20634;-66
2023/07/22 16:21:54;;;;;;;0.82;0.65;;;20.00;99.90;21.80;101067.00;;;;5084455;28;20870;-66
2023/07/22 16:24:28;;;;;;;0.93;0.93;;;20.00;99.90;22.40;101066.00;;;;5083475;28;20184;-66
2023/07/22 16:27:02;;;;;;;0.80;0.80;;;20.20;99.90;22.80;101082.00;;;;5082885;28;20212;-66
2023/07/22 16:29:43;;;;;;;2.22;0.60;;;20.50;99.90;22.70;101088.00;;;;5083496;28;20199;-66
2023/07/22 16:32:22;;;;;;;1.00;1.00;;;20.50;99.90;21.80;101069.00;;;;5083085;28;20209;-66
2023/07/22 16:34:56;;;;;;;0.50;0.50;;;20.30;99.90;22.30;101054.00;;;;5085842;28;20178;-66
2023/07/22 16:37:30;;;;;;;0.68;0.55;;;20.30;99.90;22.30;101082.00;;;;5082731;28;20176;-67
2023/07/22 16:40:09;;;;;;;1.75;1.00;;;20.50;99.90;23.20;101081.00;;;;5085513;28;20526;-66
2023/07/22 16:42:43;;;;;;;0.30;0.30;;;20.70;99.90;22.80;101068.00;;;;5083665;28;20249;-66
2023/07/22 16:45:17;;;;;;;2.30;0.28;;;20.60;99.90;22.10;101076.00;;;;5085281;28;20276;-66
2023/07/22 16:47:54;;;;;;;0.10;0.10;;;20.40;99.90;23.20;101064.00;;;;5083507;28;20283;-66
2023/07/22 16:50:31;;;;;;;0.20;0.20;;;20.50;99.90;23.00;101087.00;;;;5085219;28;20302;-66
2023/07/22 16:53:07;;;;;;;7.60;0.60;;;20.80;99.90;23.20;101079.00;;;;5066319;28;20635;-66
2023/07/22 16:55:44;;;;;;;0.10;0.10;;;20.90;99.90;23.50;101065.00;;;;5083490;28;20174;-66
2023/07/22 16:58:16;;;;;;;0.15;0.15;;;20.80;99.90;22.80;101076.00;;;;5083771;28;20185;-66
2023/07/22 17:00:42;;;;;;;0.55;0.50;;;20.70;99.90;22.40;101063.00;;;;5082155;28;20197;-66
2023/07/22 17:03:08;;;;;;;1.92;1.42;;;20.50;99.90;22.10;101041.00;;;;5082493;28;20192;-66
2023/07/22 17:05:34;;;;;;;0.20;0.20;;;20.30;99.90;22.00;101041.00;;;;5084905;28;20222;-66
2023/07/22 17:08:08;;;;;;;1.05;0.68;;;20.30;99.90;22.20;101038.00;;;;5078652;28;20296;-66
2023/07/22 17:10:42;;;;;;;0.10;0.10;;;20.40;99.90;23.00;101058.00;;;;5073138;28;20255;-66
2023/07/22 17:13:09;;;;;;;0.30;0.30;;;20.70;99.90;22.40;101051.00;;;;5071914;28;20308;-66
2023/07/22 17:15:45;;;;;;;0.40;0.30;;;20.60;99.90;23.30;101039.00;;;;5056123;28;20251;-66
2023/07/22 17:18:33;;;;;;;1.38;0.80;;;20.70;99.90;22.30;101043.00;;;;5073974;28;20243;-66
2023/07/22 17:21:10;;;;;;;2.85;1.38;;;20.50;99.90;22.80;101039.00;;;;5073454;28;20185;-66
2023/07/22 17:23:57;;;;;;;0.10;0.10;;;20.50;99.90;23.90;101037.00;;;;5072043;28;20185;-66
2023/07/22 17:26:39;;;;;;;0.20;0.20;;;20.90;99.90;23.80;101043.00;;;;5072824;28;20551;-66
2023/07/22 17:29:15;;;;;;;0.38;0.38;;;21.10;99.90;23.90;101056.00;;;;5072565;28;20220;-66
2023/07/22 17:31:47;;;;;;;0.55;0.55;;;21.20;99.90;23.10;101066.00;;;;5073339;28;20736;-66
2023/07/22 17:34:22;;;;;;;0.40;0.38;;;21.10;99.90;22.70;101034.00;;;;5074072;28;20628;-66
2023/07/22 17:36:50;;;;;;;0.10;0.10;;;20.70;99.90;23.90;101032.00;;;;5074037;28;20258;-66
2023/07/22 17:39:24;;;;;;;0.10;0.10;;;21.00;99.90;24.30;101036.00;;;;5073717;28;20181;-66
2023/07/22 17:41:56;;;;;;;0.10;0.10;;;21.20;99.90;23.50;101039.00;;;;5071136;28;20189;-66
2023/07/22 17:44:45;;;;;;;0.10;0.10;;;21.00;99.90;22.10;101021.00;;;;5073435;28;20193;-66
2023/07/22 17:47:17;;;;;;;1.88;0.77;;;20.50;99.90;22.50;101011.00;;;;5064410;28;20194;-66
2023/07/22 17:50:15;;;;;;;0.40;0.40;;;20.40;99.90;22.30;101001.00;;;;5089580;28;20191;-66
2023/07/22 17:53:21;;;;;;;0.10;0.10;;;20.20;99.90;22.50;101000.00;;;;5050588;28;20220;-66
2023/07/22 17:56:48;;;;;;;0.10;0.10;;;20.30;99.90;21.90;100987.00;;;;5082584;28;20592;-66
2023/07/22 18:00:09;;;;;;;0.15;0.15;;;20.10;99.90;22.60;100983.00;;;;5059532;28;20345;-66
2023/07/22 18:03:24;;;;;;;1.45;1.35;;;20.10;99.90;22.70;100992.00;;;;5072187;28;20192;-66
2023/07/22 18:05:50;;;;;;;0.10;0.10;;;20.40;99.90;23.50;101001.00;;;;5084016;28;20177;-66
2023/07/22 18:08:27;;;;;;;4.97;4.78;;;20.60;99.90;24.40;101014.00;;;;5072471;28;20727;-66
2023/07/22 18:11:16;;;;;;;0.10;0.10;;;21.10;99.90;24.50;101018.00;;;;5068589;28;20211;-66
2023/07/22 18:13:53;;;;;;;0.10;0.10;;;21.10;99.90;23.90;101022.00;;;;5059451;28;20209;-66
2023/07/22 18:16:24;;;;;;;0.10;0.10;;;21.10;99.90;22.80;101000.00;;;;5055650;28;20184;-66
2023/07/22 18:18:57;;;;;;;0.25;0.25;;;20.70;99.90;22.80;100997.00;;;;5081104;28;20192;-66
2023/07/22 18:21:28;;;;;;;0.10;0.10;;;20.50;99.90;22.70;100983.00;;;;5082387;28;20185;-66
2023/07/22 18:24:00;;;;;;;0.32;0.32;;;20.40;99.90;22.50;100985.00;;;;5081751;28;20193;-66
2023/07/22 18:26:25;;;;;;;0.10;0.10;;;20.30;99.90;22.00;100981.00;;;;5080806;28;20173;-66
2023/07/22 18:29:03;;;;;;;0.63;0.25;;;20.10;99.90;21.90;100958.00;;;;5081484;28;20193;-66
2023/07/22 18:31:35;;;;;;;0.10;0.10;;;20.00;99.90;23.10;100966.00;;;;5082032;28;20197;-66
2023/07/22 18:34:01;;;;;;;0.40;0.40;;;20.30;99.90;22.30;100968.00;;;;5080137;28;20828;-66
2023/07/22 18:36:32;;;;;;;0.60;0.60;;;20.30;99.90;21.70;100944.00;;;;5082588;28;20268;-66
2023/07/22 18:39:01;;;;;;;0.20;0.20;;;20.10;99.90;22.60;100961.00;;;;5081559;28;20197;-66
2023/07/22 18:41:27;;;;;;;0.52;0.52;;;20.10;99.90;22.60;100972.00;;;;5098515;28;20199;-66
2023/07/22 18:43:59;;;;;;;0.65;0.65;;;20.40;99.90;22.80;100961.00;;;;5080499;28;20717;-66
2023/07/22 18:46:33;;;;;;;0.43;0.43;;;20.40;99.90;23.40;100956.00;;;;5081035;28;20251;-66
2023/07/22 18:49:01;;;;;;;0.10;0.10;;;20.50;99.90;24.00;100928.00;;;;5081840;28;20246;-66
2023/07/22 18:51:35;;;;;;;0.20;0.20;;;20.90;99.90;24.70;100962.00;;;;5081806;28;20387;-66
2023/07/22 18:54:10;;;;;;;0.10;0.10;;;21.40;99.90;24.60;100965.00;;;;5082275;28;20177;-66
2023/07/22 18:56:41;;;;;;;0.10;0.10;;;21.50;99.90;24.40;100961.00;;;;5085540;28;20176;-66